KOSH/OSH METAR and TAF weather

Enter ICAO airport designator
Station Type Date Time Source
KOSH METAR 2020/03/28 08:42 UTC NOAA

KOSH 280842Z AUTO 03013KT 3SM -RA BR BKN004 OVC027 03/02 A2978 RMK AO2 RAE02B22UPB02E22 CIG 003V007 P0000 T00330022


Station Type Date Time Source
KOSH Decoded METAR 2020/03/28 08:42 UTC NOAA

WITTMAN REGIONAL AIRPORT, WI, United States (KOSH) 43-58N 88-33W 248M
Mar 28, 2020 - 04:42 AM EDT / 2020.03.28 0842 UTC
Wind: from the NNE (030 degrees) at 15 MPH (13 KT):0
Visibility: 3 mile(s):0
Sky conditions: overcast
Weather: light rain; mist
Precipitation last hour: A trace
Temperature: 37.9 F (3.3 C)
Dew Point: 36.0 F (2.2 C)
Relative Humidity: 92%
Pressure (altimeter): 29.78 in. Hg (1008 hPa)
ob: KOSH 280842Z AUTO 03013KT 3SM -RA BR BKN004 OVC027 03/02 A2978 RMK AO2 RAE02B22UPB02E22 CIG 003V007 P0000 T00330022
cycle: 8

Station Type Date Time Source
KOSH TAF 2019/07/30 12:39 UTC NOAA

TAF KOSH 301136Z 3012/3112 36006KT P6SM BKN050
TEMPO 3015/3017 BKN025
FM301700 01006KT P6SM BKN035
FM302200 04005KT P6SM SCT045
FM310200 11003KT P6SM SKC
FM310900 VRB03KT 6SM BR SKC

Example: see airport list